الكل
Coober Pedy Airport (Coober Pedy, South Australia) CPD حالة الطقس
|
Coober Pedy, South Australia (CPD / YCBP)
سماء صافية
شديد الرياح |
|
25 °C |
توقع منطقة محطة المطارCPD
| Date | Time (ACST) | Flight Rules | Wind Dir. | Speed | Type | Height AGL (ft) | Visibility | Remarks | ||||||
|---|---|---|---|---|---|---|---|---|---|---|---|---|---|---|
محفوظات أحدث تقرير روتيني عن حالة الطقس من أجل الطيران (الميتار )CPD
| Date | Time (ACST) | Flight Rules | Wind Dir. | Speed | Type | Height AGL (ft) | Visibility | Temp (°C) | Temp (°F) | Dew Point (°C) | Dew Point (°F) | Rel. Humid. | Pressure | Density Altitude | Remarks |
|---|---|---|---|---|---|---|---|---|---|---|---|---|---|---|---|
| 05-سبت | 00:30 | VFR | 230° | 18 kt | 10000 meters | 25° | 77° | 10° | 50° | 39% | 1014 mb | 1,917 ft | |||
| 04-سبت | 23:30 | VFR | 240° | 12 kt | 10000 meters | 26° | 78° | 7° | 44° | 30% | 1014 mb | 2,037 ft | |||
| 04-سبت | 22:30 | VFR | 340° | 7 kt | 10000 meters | 25° | 77° | 6° | 42° | 30% | 1013 mb | 1,946 ft | |||
| 04-سبت | 21:30 | VFR | 240° | 1 kt | 10000 meters | 24° | 75° | 7° | 44° | 34% | 1013 mb | 1,826 ft | |||
| 04-سبت | 20:30 | VFR | 230° | 6 kt | 10000 meters | 25° | 77° | 6° | 42° | 30% | 1012 mb | 1,976 ft | |||
| 04-سبت | 19:30 | VFR | 220° | 6 kt | 10000 meters | 26° | 78° | 6° | 42° | 28% | 1012 mb | 2,096 ft | |||
| 04-سبت | 18:30 | VFR | 210° | 8 kt | 10000 meters | 28° | 82° | 5° | 41° | 23% | 1011 mb | 2,365 ft | |||
| 04-سبت | 17:30 | VFR | 230° | 14 kt | Few |
7,900 |
10000 meters | 30° | 86° | 3° | 37° | 18% | 1011 mb | 2,605 ft | |
| 04-سبت | 16:30 | VFR | 260° | 12 kt | 10000 meters | 32° | 89° | 3° | 37° | 16% | 1011 mb | 2,845 ft | |||
| 04-سبت | 15:38 | VFR | 280° | 19 kt | 10000 meters | 33° | 91° | 1° | 33° | 13% | 1010 mb | 2,995 ft | |||
| 04-سبت | 14:30 | VFR | 310° | 21 kt | 10000 meters | 34° | 93° | 3° | 37° | 14% | 1010 mb | 3,115 ft | |||
| 04-سبت | 13:32 | VFR | 310° | 20 kt | 10000 meters | 34° | 93° | 3° | 37° | 14% | 1011 mb | 3,085 ft | Wind gusting to 30 KT | ||
| 04-سبت | 12:30 | VFR | 340° | 22 kt | 10000 meters | 34° | 93° | 5° | 41° | 16% | 1012 mb | 3,056 ft | Wind gusting to 32 KT | ||
| 04-سبت | 11:30 | VFR | 10° | 20 kt | 10000 meters | 30° | 86° | 7° | 44° | 24% | 1013 mb | 2,546 ft | |||
| 04-سبت | 10:30 | VFR | 10° | 21 kt | 10000 meters | 26° | 78° | 8° | 46° | 32% | 1014 mb | 2,037 ft | |||
| 04-سبت | 09:30 | VFR | 30° | 20 kt | 10000 meters | 22° | 71° | 8° | 46° | 41% | 1015 mb | 1,527 ft | |||
| 04-سبت | 08:30 | VFR | 40° | 21 kt | 10000 meters | 19° | 66° | 7° | 44° | 46% | 1015 mb | 1,167 ft | |||
| 04-سبت | 07:30 | VFR | 50° | 17 kt | 10000 meters | 17° | 62° | 7° | 44° | 52% | 1015 mb | 927 ft | |||
| 04-سبت | 06:30 | VFR | 50° | 18 kt | 10000 meters | 16° | 60° | 7° | 44° | 55% | 1015 mb | 807 ft | |||
| 04-سبت | 05:30 | VFR | 50° | 15 kt | 10000 meters | 17° | 62° | 7° | 44° | 52% | 1015 mb | 927 ft | |||
| 04-سبت | 04:30 | VFR | 60° | 14 kt | 10000 meters | 17° | 62° | 7° | 44° | 52% | 1015 mb | 927 ft | |||
| 04-سبت | 03:30 | VFR | 50° | 13 kt | 10000 meters | 17° | 62° | 7° | 44° | 52% | 1015 mb | 927 ft | |||
| 04-سبت | 02:30 | VFR | 50° | 17 kt | 10000 meters | 18° | 64° | 7° | 44° | 49% | 1015 mb | 1,047 ft | |||
| 04-سبت | 01:30 | VFR | 50° | 18 kt | 10000 meters | 19° | 66° | 7° | 44° | 46% | 1016 mb | 1,138 ft |
تسجيل الدخول
| مُتصفحك غير مُدعَّم. قم بترقية متصفحك |
